createdAt,value
2019-06-07T00:02:02.168Z,21.30
2019-06-07T00:04:32.424Z,21.20
2019-06-07T00:07:03.578Z,21.30
2019-06-07T00:09:33.984Z,21.10
2019-06-07T00:12:04.694Z,20.90
2019-06-07T00:14:35.204Z,20.90
2019-06-07T00:17:05.451Z,21.00
2019-06-07T00:19:35.733Z,20.60
2019-06-07T00:22:17.758Z,20.60
2019-06-07T00:24:38.175Z,20.30
2019-06-07T00:27:08.485Z,20.20
2019-06-07T00:29:40.097Z,20.10
2019-06-07T00:32:18.149Z,20.10
2019-06-07T00:34:47.552Z,20.40
2019-06-07T00:37:20.704Z,20.30
2019-06-07T00:40:12.732Z,20.20
2019-06-07T00:42:24.048Z,20.30
2019-06-07T00:44:54.121Z,20.30
2019-06-07T00:47:25.725Z,20.20
2019-06-07T00:49:56.453Z,20.30
2019-06-07T00:54:58.727Z,20.10
2019-06-07T00:57:28.985Z,20.00
2019-06-07T00:59:59.434Z,19.90
2019-06-07T01:02:31.657Z,19.80
2019-06-07T01:05:01.755Z,19.50
2019-06-07T01:07:33.538Z,19.60
2019-06-07T01:10:03.859Z,19.80
2019-06-07T01:12:34.099Z,19.80
2019-06-07T01:15:05.478Z,20.00
2019-06-07T01:17:50.096Z,20.10
2019-06-07T01:20:08.300Z,20.20
2019-06-07T01:22:38.589Z,20.20
2019-06-07T01:25:09.269Z,19.90
2019-06-07T01:27:39.710Z,19.70
2019-06-07T01:30:11.354Z,19.50
2019-06-07T01:32:43.813Z,19.30
2019-06-07T01:35:14.111Z,19.20
2019-06-07T01:37:44.362Z,18.70
2019-06-07T01:40:16.981Z,18.70
2019-06-07T01:42:48.156Z,18.70
2019-06-07T01:45:19.546Z,18.80
2019-06-07T01:47:50.243Z,18.70
2019-06-07T01:50:23.327Z,18.70
2019-06-07T01:52:53.648Z,18.70
2019-06-07T01:55:27.293Z,18.70
2019-06-07T01:57:55.800Z,18.60
2019-06-07T02:00:31.467Z,18.70
2019-06-07T02:02:57.977Z,18.60
2019-06-07T02:05:30.964Z,18.50
2019-06-07T02:08:00.167Z,18.50
2019-06-07T02:10:33.395Z,18.40
2019-06-07T02:13:02.506Z,18.40
2019-06-07T02:15:36.667Z,18.30
2019-06-07T02:18:04.686Z,18.30
2019-06-07T02:20:35.056Z,18.30
2019-06-07T02:23:06.501Z,18.30
2019-06-07T02:25:45.880Z,18.40
2019-06-07T02:28:27.646Z,18.30
2019-06-07T02:30:53.374Z,18.30
2019-06-07T02:33:13.606Z,18.20
2019-06-07T02:35:43.825Z,18.20
2019-06-07T02:38:14.128Z,18.20
2019-06-07T02:40:44.460Z,18.30
2019-06-07T02:43:15.982Z,18.30
2019-06-07T02:45:46.241Z,18.30
2019-06-07T02:48:16.434Z,18.30
2019-06-07T02:50:46.903Z,18.20
2019-06-07T02:53:17.175Z,18.30
2019-06-07T02:56:33.901Z,18.10
2019-06-07T02:58:19.530Z,18.10
2019-06-07T03:01:09.000Z,18.20
2019-06-07T03:03:22.794Z,18.20
2019-06-07T03:05:52.965Z,18.00
2019-06-07T03:08:23.230Z,18.00
2019-06-07T03:10:53.480Z,18.00
2019-06-07T03:13:28.495Z,18.00
2019-06-07T03:15:58.399Z,18.00
2019-06-07T03:18:47.040Z,18.00
2019-06-07T03:21:21.812Z,18.00
2019-06-07T03:23:56.270Z,18.10
2019-06-07T03:26:30.441Z,18.10
2019-06-07T03:29:00.843Z,18.10
2019-06-07T03:31:38.094Z,18.00
2019-06-07T03:34:03.017Z,18.00
2019-06-07T03:36:35.375Z,18.10
2019-06-07T03:39:06.795Z,18.20
2019-06-07T03:41:49.919Z,18.00
2019-06-07T03:44:09.214Z,18.10
2019-06-07T03:46:41.564Z,18.10
2019-06-07T03:49:11.526Z,18.40
2019-06-07T03:51:41.830Z,18.60
2019-06-07T03:54:12.342Z,18.90
2019-06-07T03:56:42.609Z,18.80
2019-06-07T03:59:12.892Z,18.80
2019-06-07T04:01:43.230Z,18.90
2019-06-07T04:04:13.477Z,19.00
2019-06-07T04:06:43.908Z,19.00
2019-06-07T04:09:14.183Z,19.50
2019-06-07T04:11:44.837Z,19.60
2019-06-07T04:14:15.288Z,19.70
2019-06-07T04:16:45.591Z,20.10
2019-06-07T04:19:16.021Z,20.00
2019-06-07T04:21:46.301Z,19.90
2019-06-07T04:24:16.569Z,19.80
2019-06-07T04:26:46.980Z,19.70
2019-06-07T04:29:41.398Z,19.70
2019-06-07T04:31:49.297Z,19.60
2019-06-07T04:34:19.616Z,20.00
2019-06-07T04:36:58.555Z,20.00
2019-06-07T04:39:25.531Z,19.90
2019-06-07T04:41:57.199Z,20.10
2019-06-07T04:44:28.866Z,20.20
2019-06-07T04:47:02.544Z,20.40
2019-06-07T04:49:38.114Z,20.40
2019-06-07T04:52:07.271Z,20.40
2019-06-07T04:54:40.630Z,20.70
2019-06-07T04:57:09.864Z,20.60
2019-06-07T05:00:11.156Z,20.40
2019-06-07T05:02:12.698Z,20.90
2019-06-07T05:04:44.055Z,21.10
2019-06-07T05:07:14.898Z,21.60
2019-06-07T05:09:45.163Z,21.20
2019-06-07T05:12:15.451Z,21.30
2019-06-07T05:14:45.750Z,21.30
2019-06-07T05:17:15.958Z,21.40
2019-06-07T05:19:46.193Z,21.70
2019-06-07T05:22:16.406Z,21.80
2019-06-07T05:24:47.080Z,21.70
2019-06-07T05:27:17.963Z,21.90
2019-06-07T05:30:08.933Z,21.90
2019-06-07T05:32:20.431Z,21.80
2019-06-07T05:34:50.961Z,21.90
2019-06-07T05:37:21.220Z,21.90
2019-06-07T05:39:51.631Z,22.00
2019-06-07T05:42:21.927Z,22.10
2019-06-07T05:44:52.137Z,22.20
2019-06-07T05:47:25.509Z,22.40
2019-06-07T05:49:55.864Z,22.10
2019-06-07T05:52:26.127Z,22.90
2019-06-07T05:54:56.421Z,22.50
2019-06-07T05:57:26.754Z,21.90
2019-06-07T05:59:57.083Z,22.10
2019-06-07T06:02:27.684Z,22.00
2019-06-07T06:04:57.985Z,21.90
2019-06-07T06:07:28.795Z,22.10
2019-06-07T06:09:59.162Z,21.90
2019-06-07T06:12:35.295Z,22.00
2019-06-07T06:15:01.592Z,22.10
2019-06-07T06:17:32.102Z,21.90
2019-06-07T06:20:02.346Z,22.20
2019-06-07T06:22:32.862Z,22.20
2019-06-07T06:25:34.291Z,22.20
2019-06-07T06:30:10.454Z,22.30
2019-06-07T06:32:50.726Z,22.30
2019-06-07T06:35:14.366Z,22.20
2019-06-07T06:37:49.643Z,22.40
2019-06-07T06:40:17.306Z,22.50
2019-06-07T06:42:50.092Z,22.60
2019-06-07T06:45:19.886Z,22.60
2019-06-07T06:47:50.739Z,22.70
2019-06-07T06:50:22.498Z,22.60
2019-06-07T06:52:54.666Z,22.60
2019-06-07T06:55:25.163Z,22.70
2019-06-07T06:57:55.652Z,22.70
2019-06-07T07:00:58.106Z,22.70
2019-06-07T07:03:56.082Z,22.80
2019-06-07T07:05:54.941Z,22.90
2019-06-07T07:08:26.088Z,23.10
2019-06-07T07:10:56.312Z,23.50
2019-06-07T07:13:26.780Z,23.40
2019-06-07T07:15:58.381Z,23.30
2019-06-07T07:18:28.969Z,23.20
2019-06-07T07:20:59.251Z,23.40
2019-06-07T07:23:29.572Z,23.60
2019-06-07T07:26:00.373Z,23.70
2019-06-07T07:28:30.600Z,23.70
2019-06-07T07:31:00.882Z,23.50
2019-06-07T07:34:20.605Z,23.70
2019-06-07T07:36:19.348Z,24.00
2019-06-07T07:38:35.762Z,24.20
2019-06-07T07:41:14.597Z,24.30
2019-06-07T07:43:38.351Z,24.30
2019-06-07T07:46:28.505Z,24.40
2019-06-07T07:48:40.857Z,24.50
2019-06-07T07:51:11.130Z,24.60
2019-06-07T07:53:51.662Z,24.60
2019-06-07T07:56:13.522Z,24.70
2019-06-07T07:58:48.740Z,24.50
2019-06-07T08:01:15.898Z,24.50
2019-06-07T08:03:46.319Z,24.70
2019-06-07T08:06:16.549Z,24.90
2019-06-07T08:08:46.849Z,25.00
2019-06-07T08:11:17.144Z,24.90
2019-06-07T08:13:48.102Z,24.90
2019-06-07T08:16:19.006Z,24.90
2019-06-07T08:18:52.801Z,24.80
2019-06-07T08:21:26.237Z,24.90
2019-06-07T08:23:58.233Z,24.80
2019-06-07T08:26:25.639Z,24.90
2019-06-07T08:28:59.027Z,25.00
2019-06-07T08:31:27.905Z,25.20
2019-06-07T08:34:00.506Z,25.20
2019-06-07T08:36:42.033Z,25.20
2019-06-07T08:39:07.266Z,25.10
2019-06-07T08:41:34.571Z,25.10
2019-06-07T08:44:22.918Z,25.20
2019-06-07T08:46:37.098Z,25.30
2019-06-07T08:49:07.455Z,25.20
2019-06-07T08:51:37.788Z,25.20
2019-06-07T08:54:21.858Z,25.40
2019-06-07T08:56:40.215Z,25.40
2019-06-07T08:59:11.772Z,25.30
2019-06-07T09:01:42.155Z,25.30
2019-06-07T09:04:12.788Z,25.40
2019-06-07T09:09:15.127Z,25.40
2019-06-07T09:11:45.363Z,25.50
2019-06-07T09:14:15.618Z,25.40
2019-06-07T09:16:46.355Z,25.40
2019-06-07T09:19:16.645Z,25.50
2019-06-07T09:21:47.411Z,25.50
2019-06-07T09:24:17.675Z,25.70
2019-06-07T09:26:48.730Z,25.70
2019-06-07T09:29:19.635Z,25.80
2019-06-07T09:31:53.248Z,25.90
2019-06-07T09:34:22.057Z,25.80
2019-06-07T09:36:53.384Z,25.80
2019-06-07T09:39:24.784Z,25.70
2019-06-07T09:41:56.305Z,25.70
2019-06-07T09:44:28.302Z,25.80
2019-06-07T09:47:20.130Z,25.90
2019-06-07T09:49:33.282Z,26.00
2019-06-07T09:52:09.155Z,26.10
2019-06-07T09:55:05.876Z,26.10
2019-06-07T09:57:16.447Z,26.10
2019-06-07T09:59:40.730Z,26.20
2019-06-07T10:02:13.599Z,26.10
2019-06-07T10:04:43.380Z,26.10
2019-06-07T10:07:30.543Z,26.10
2019-06-07T10:12:19.166Z,26.30
2019-06-07T10:14:49.737Z,26.30
2019-06-07T10:17:19.918Z,26.30
2019-06-07T10:19:50.218Z,26.40
2019-06-07T10:22:20.397Z,26.30
2019-06-07T10:24:50.670Z,26.30
2019-06-07T10:27:21.230Z,26.50
2019-06-07T10:29:51.370Z,26.50
2019-06-07T10:32:21.787Z,26.50
2019-06-07T10:34:52.352Z,26.50
2019-06-07T10:37:22.803Z,26.60
2019-06-07T10:39:53.519Z,26.70
2019-06-07T10:42:23.816Z,26.70
2019-06-07T10:44:54.550Z,26.60
2019-06-07T10:47:24.741Z,26.50
2019-06-07T10:49:55.314Z,26.60
2019-06-07T10:52:25.708Z,26.70
2019-06-07T10:54:55.968Z,26.80
2019-06-07T10:57:26.283Z,26.80
2019-06-07T10:59:56.504Z,26.80
2019-06-07T11:02:27.014Z,26.60
2019-06-07T11:04:57.298Z,26.80
2019-06-07T11:07:27.722Z,26.90
2019-06-07T11:10:07.176Z,26.90
2019-06-07T11:12:29.966Z,26.80
2019-06-07T11:15:00.162Z,26.60
2019-06-07T11:17:30.438Z,26.60
2019-06-07T11:20:03.336Z,26.60
2019-06-07T11:22:33.624Z,26.50
2019-06-07T11:25:05.859Z,26.50
2019-06-07T11:27:36.329Z,26.50
2019-06-07T11:30:08.349Z,26.50
2019-06-07T11:32:38.897Z,26.60
2019-06-07T11:35:11.700Z,26.70
2019-06-07T11:37:45.465Z,26.60
2019-06-07T11:40:33.241Z,26.70
2019-06-07T11:42:52.554Z,26.80
2019-06-07T11:45:21.429Z,26.80
2019-06-07T11:47:51.665Z,26.80
2019-06-07T11:50:22.020Z,26.90
2019-06-07T11:52:55.332Z,27.00
2019-06-07T11:55:25.513Z,27.00
2019-06-07T11:57:55.811Z,26.90
2019-06-07T12:00:26.693Z,26.90
2019-06-07T12:02:56.920Z,26.90
2019-06-07T12:05:27.213Z,27.00
2019-06-07T12:07:58.015Z,26.90
2019-06-07T12:10:41.808Z,27.00
2019-06-07T12:13:00.624Z,27.10
2019-06-07T12:15:30.884Z,27.10
2019-06-07T12:18:01.655Z,27.10
2019-06-07T12:20:31.908Z,27.10
2019-06-07T12:23:02.280Z,27.10
2019-06-07T12:25:32.589Z,27.00
2019-06-07T12:28:03.104Z,27.10
2019-06-07T12:30:33.677Z,27.10
2019-06-07T12:33:03.960Z,27.10
2019-06-07T12:35:34.754Z,27.30
2019-06-07T12:38:05.077Z,27.30
2019-06-07T12:40:35.489Z,27.30
2019-06-07T12:43:07.079Z,27.30
2019-06-07T12:45:45.241Z,27.30
2019-06-07T12:48:09.546Z,27.50
2019-06-07T12:50:43.247Z,27.60
2019-06-07T12:53:13.477Z,27.70
2019-06-07T12:55:44.437Z,27.90
2019-06-07T12:58:15.817Z,27.90
2019-06-07T13:00:46.823Z,27.80
2019-06-07T13:03:18.297Z,27.70
2019-06-07T13:05:49.111Z,27.70
2019-06-07T13:08:19.823Z,27.60
2019-06-07T13:10:50.359Z,27.70
2019-06-07T13:13:21.405Z,27.70
2019-06-07T13:15:52.431Z,27.70
2019-06-07T13:18:23.805Z,27.80
2019-06-07T13:20:55.620Z,27.80
2019-06-07T13:23:26.307Z,27.80
2019-06-07T13:25:56.575Z,27.90
2019-06-07T13:28:26.864Z,27.90
2019-06-07T13:30:57.137Z,27.90
2019-06-07T13:33:33.884Z,27.90
2019-06-07T13:35:59.567Z,28.10
2019-06-07T13:38:30.046Z,28.30
2019-06-07T13:41:00.299Z,28.10
2019-06-07T13:43:30.902Z,28.20
2019-06-07T13:46:01.155Z,28.20
2019-06-07T13:48:31.472Z,28.30
2019-06-07T13:51:01.996Z,28.30
2019-06-07T13:53:33.455Z,28.60
2019-06-07T13:56:03.716Z,28.90
2019-06-07T13:58:33.904Z,28.90
2019-06-07T14:01:04.220Z,28.90
2019-06-07T14:03:34.687Z,28.90
2019-06-07T14:06:05.028Z,28.80
2019-06-07T14:08:36.031Z,28.60
2019-06-07T14:11:06.377Z,28.50
2019-06-07T14:13:36.666Z,28.50
2019-06-07T14:16:07.214Z,28.60
2019-06-07T14:18:37.484Z,28.30
2019-06-07T14:21:08.045Z,28.10
2019-06-07T14:23:48.298Z,28.10
2019-06-07T14:26:10.932Z,28.00
2019-06-07T14:28:41.104Z,28.00
2019-06-07T14:31:11.461Z,28.00
2019-06-07T14:33:41.734Z,28.00
2019-06-07T14:36:11.970Z,27.90
2019-06-07T14:38:42.228Z,27.80
2019-06-07T14:41:15.486Z,27.80
2019-06-07T14:43:46.195Z,28.00
2019-06-07T14:46:16.628Z,27.90
2019-06-07T14:48:46.934Z,28.00
2019-06-07T14:51:17.484Z,27.90
2019-06-07T14:53:50.923Z,27.90
2019-06-07T14:56:21.348Z,28.10
2019-06-07T14:58:51.642Z,28.10
2019-06-07T15:01:22.938Z,28.00
2019-06-07T15:03:53.240Z,28.00
2019-06-07T15:06:23.478Z,27.80
2019-06-07T15:08:56.841Z,27.80
2019-06-07T15:11:28.848Z,27.90
2019-06-07T15:13:59.601Z,28.30
2019-06-07T15:16:30.544Z,28.50
2019-06-07T15:19:01.851Z,28.30
2019-06-07T15:21:32.922Z,28.20
2019-06-07T15:24:03.436Z,28.20
2019-06-07T15:26:34.569Z,28.00
2019-06-07T15:29:05.339Z,27.90
2019-06-07T15:31:36.730Z,27.70
2019-06-07T15:34:08.219Z,27.70
2019-06-07T15:36:38.908Z,27.70
2019-06-07T15:39:09.144Z,27.70
2019-06-07T15:41:39.901Z,27.90
2019-06-07T15:44:10.390Z,28.00
2019-06-07T15:46:40.664Z,28.10
2019-06-07T15:49:12.533Z,28.10
2019-06-07T15:51:42.947Z,28.20
2019-06-07T15:54:14.359Z,28.20
2019-06-07T15:56:45.400Z,28.30
2019-06-07T15:59:15.665Z,28.40
2019-06-07T16:01:46.740Z,28.60
2019-06-07T16:04:17.074Z,30.10
2019-06-07T16:06:47.856Z,30.00
2019-06-07T16:09:21.170Z,29.80
2019-06-07T16:11:51.681Z,33.00
2019-06-07T16:14:22.271Z,34.70
2019-06-07T16:16:52.796Z,32.10
2019-06-07T16:19:23.203Z,31.40
2019-06-07T16:21:53.479Z,33.60
2019-06-07T16:24:23.921Z,35.40
2019-06-07T16:26:54.161Z,34.40
2019-06-07T16:29:24.427Z,31.90
2019-06-07T16:31:54.737Z,30.10
2019-06-07T16:34:25.180Z,29.30
2019-06-07T16:36:55.896Z,28.80
2019-06-07T16:39:26.134Z,28.70
2019-06-07T16:41:56.404Z,28.70
2019-06-07T16:44:26.856Z,28.60
2019-06-07T16:46:57.142Z,28.90
2019-06-07T16:49:27.589Z,28.80
2019-06-07T16:51:57.935Z,28.80
2019-06-07T16:54:28.193Z,28.80
2019-06-07T16:56:59.911Z,28.60
2019-06-07T16:59:30.171Z,28.40
2019-06-07T17:02:00.477Z,28.30
2019-06-07T17:04:30.770Z,28.20
2019-06-07T17:07:01.079Z,28.00
2019-06-07T17:09:31.359Z,28.00
2019-06-07T17:12:01.661Z,27.90
2019-06-07T17:14:31.936Z,27.80
2019-06-07T17:17:02.250Z,28.30
2019-06-07T17:19:32.548Z,28.10
2019-06-07T17:22:03.144Z,27.90
2019-06-07T17:24:33.603Z,27.90
2019-06-07T17:27:05.458Z,27.90
2019-06-07T17:29:36.730Z,28.00
2019-06-07T17:32:07.247Z,28.30
2019-06-07T17:34:39.883Z,28.50
2019-06-07T17:37:10.645Z,28.20
2019-06-07T17:39:40.930Z,27.80
2019-06-07T17:42:11.510Z,27.30
2019-06-07T17:44:42.873Z,27.30
2019-06-07T17:47:13.506Z,27.20
2019-06-07T17:49:44.240Z,26.90
2019-06-07T17:52:14.564Z,26.70
2019-06-07T17:54:45.895Z,26.50
2019-06-07T17:57:16.240Z,26.80
2019-06-07T17:59:46.708Z,26.90
2019-06-07T18:02:17.004Z,27.20
2019-06-07T18:04:47.600Z,27.70
2019-06-07T18:07:19.050Z,27.90
2019-06-07T18:09:49.706Z,28.30
2019-06-07T18:12:19.928Z,28.40
2019-06-07T18:14:50.496Z,28.40
2019-06-07T18:17:33.651Z,28.00
2019-06-07T18:19:53.011Z,27.70
2019-06-07T18:22:24.374Z,27.30
2019-06-07T18:24:54.782Z,27.10
2019-06-07T18:27:25.258Z,26.80
2019-06-07T18:29:57.299Z,26.60
2019-06-07T18:32:27.575Z,26.40
2019-06-07T18:35:00.256Z,26.20
2019-06-07T18:37:30.025Z,26.10
2019-06-07T18:40:00.461Z,26.10
2019-06-07T18:42:31.070Z,26.00
2019-06-07T18:45:01.366Z,25.70
2019-06-07T18:47:32.122Z,25.60
2019-06-07T18:50:02.534Z,25.40
2019-06-07T18:52:35.377Z,25.30
2019-06-07T18:55:06.415Z,25.40
2019-06-07T18:57:36.952Z,25.30
2019-06-07T19:00:08.942Z,25.10
2019-06-07T19:02:39.503Z,25.10
2019-06-07T19:05:11.049Z,25.10
2019-06-07T19:07:42.291Z,25.00
2019-06-07T19:10:14.875Z,24.90
2019-06-07T19:12:45.341Z,24.80
2019-06-07T19:15:16.912Z,24.70
2019-06-07T19:17:47.771Z,24.50
2019-06-07T19:20:20.118Z,24.50
2019-06-07T19:22:50.570Z,24.40
2019-06-07T19:25:21.427Z,24.40
2019-06-07T19:27:52.714Z,24.40
2019-06-07T19:30:23.903Z,24.40
2019-06-07T19:32:55.099Z,24.30
2019-06-07T19:35:25.886Z,24.40
2019-06-07T19:37:56.272Z,24.50
2019-06-07T19:40:26.534Z,24.40
2019-06-07T19:42:58.369Z,24.40
2019-06-07T19:45:31.520Z,24.20
2019-06-07T19:48:02.825Z,24.20
2019-06-07T19:50:33.342Z,24.20
2019-06-07T19:53:04.612Z,24.30
2019-06-07T19:55:35.210Z,24.40
2019-06-07T19:58:05.505Z,24.40
2019-06-07T20:00:35.789Z,24.40
2019-06-07T20:03:06.067Z,24.30
2019-06-07T20:05:36.673Z,24.10
2019-06-07T20:08:07.392Z,24.00
2019-06-07T20:10:37.786Z,24.00
2019-06-07T20:13:08.096Z,24.00
2019-06-07T20:15:38.445Z,23.90
2019-06-07T20:18:08.805Z,23.90
2019-06-07T20:20:39.116Z,23.90
2019-06-07T20:23:09.416Z,24.00
2019-06-07T20:25:39.695Z,24.10
2019-06-07T20:28:10.072Z,23.90
2019-06-07T20:30:41.242Z,23.80
2019-06-07T20:33:12.191Z,23.70
2019-06-07T20:35:42.894Z,23.40
2019-06-07T20:38:13.551Z,23.30
2019-06-07T20:40:43.816Z,23.20
2019-06-07T20:43:14.625Z,23.10
2019-06-07T20:45:44.925Z,23.10
2019-06-07T20:48:16.586Z,23.00
2019-06-07T20:50:47.106Z,22.90
2019-06-07T20:53:17.639Z,22.80
2019-06-07T20:55:47.978Z,22.80
2019-06-07T20:58:18.367Z,22.70
2019-06-07T21:00:48.943Z,22.70
2019-06-07T21:03:19.382Z,22.70
2019-06-07T21:05:49.672Z,22.70
2019-06-07T21:08:19.924Z,22.60
2019-06-07T21:10:50.215Z,22.80
2019-06-07T21:13:20.491Z,22.80
2019-06-07T21:15:50.976Z,22.60
2019-06-07T21:18:21.165Z,22.60
2019-06-07T21:20:51.654Z,22.50
2019-06-07T21:23:23.255Z,22.50
2019-06-07T21:25:53.371Z,22.50
2019-06-07T21:28:23.848Z,22.50
2019-06-07T21:30:54.199Z,22.40
2019-06-07T21:33:24.574Z,22.30
2019-06-07T21:35:54.791Z,22.30
2019-06-07T21:38:25.403Z,22.20
2019-06-07T21:40:55.667Z,22.20
2019-06-07T21:43:26.026Z,22.20
2019-06-07T21:46:06.458Z,22.20
2019-06-07T21:48:28.570Z,22.30
2019-06-07T21:50:58.890Z,22.30
2019-06-07T21:53:29.150Z,22.70
2019-06-07T21:55:59.410Z,23.00
2019-06-07T21:58:29.709Z,22.70
2019-06-07T22:01:14.387Z,22.40
2019-06-07T22:03:45.961Z,22.00
2019-06-07T22:06:16.790Z,21.80
2019-06-07T22:08:47.152Z,21.70
2019-06-07T22:11:17.430Z,21.50
2019-06-07T22:13:47.705Z,21.40
2019-06-07T22:16:28.430Z,21.30
2019-06-07T22:18:50.018Z,21.30
2019-06-07T22:21:20.430Z,21.20
2019-06-07T22:23:50.794Z,21.10
2019-06-07T22:26:21.372Z,21.10
2019-06-07T22:28:51.642Z,21.30
2019-06-07T22:31:22.126Z,21.30
2019-06-07T22:33:54.195Z,21.40
2019-06-07T22:36:26.905Z,21.20
2019-06-07T22:38:57.224Z,21.20
2019-06-07T22:41:27.630Z,21.10
2019-06-07T22:43:58.171Z,21.00
2019-06-07T22:46:37.534Z,21.00
2019-06-07T22:49:00.672Z,21.00
2019-06-07T22:51:31.056Z,20.90
2019-06-07T22:54:01.332Z,20.80
2019-06-07T22:56:42.803Z,20.70
2019-06-07T22:59:16.736Z,20.70
2019-06-07T23:01:45.060Z,20.70
2019-06-07T23:04:16.473Z,20.60
2019-06-07T23:06:46.886Z,20.60
2019-06-07T23:09:17.189Z,20.60
2019-06-07T23:11:47.440Z,20.60
2019-06-07T23:14:17.865Z,20.60
2019-06-07T23:16:55.289Z,20.70
2019-06-07T23:19:20.517Z,20.60
2019-06-07T23:21:50.956Z,20.70
2019-06-07T23:24:21.569Z,20.80
2019-06-07T23:26:52.094Z,20.60
2019-06-07T23:29:22.386Z,20.60
2019-06-07T23:31:52.613Z,20.60
2019-06-07T23:34:24.068Z,20.60
2019-06-07T23:36:54.371Z,20.70
2019-06-07T23:39:25.509Z,20.50
2019-06-07T23:41:55.805Z,20.20
2019-06-07T23:44:26.071Z,20.30
2019-06-07T23:47:10.388Z,20.50
2019-06-07T23:49:28.508Z,20.20
2019-06-07T23:51:59.425Z,19.90
2019-06-07T23:54:29.908Z,19.80
2019-06-07T23:57:00.175Z,19.60
2019-06-07T23:59:30.559Z,19.80
